Aviation Digital Data Service (ADDS)

Output produced by METARs form (0631 UTC 19 March 2019)
found at http://www.aviationweather.gov/metar/data/
 
Forecast for: MMGL (GUADALAJARA , MX)
Text: TAF MMGL 190425Z 1906/2012 30005KT P6SM SKC TX27/1920Z TN11/1911Z
Forecast period: 0600 to 1800 UTC 19 March 2019
Forecast type: FROM: standard forecast or significant change
Winds: from the WNW (300 degrees) at 6 MPH (5 knots; 2.6 m/s)
Visibility: 6 or more miles 10+ km)
Clouds: clear skies
Weather: no significant weather forecast for this period
Text: FM191800 24016KT P6SM BKN025 BKN080
Forecast period: 1800 UTC 19 March 2019 to 0600 UTC 20 March 2019
Forecast type: FROM: standard forecast or significant change
Winds: from the WSW (240 degrees) at 18 MPH (16 knots; 8.2 m/s)
Visibility: 6 or more miles 10+ km)
Ceiling: 2500 feet AGL
Clouds: broken clouds at 2500 feet AGL
broken clouds at 8000 feet AGL
Weather: no significant weather forecast for this period
Text: FM200600 29005KT P6SM SCT030
Forecast period: 0600 to 1200 UTC 20 March 2019
Forecast type: FROM: standard forecast or significant change
Winds: from the WNW (290 degrees) at 6 MPH (5 knots; 2.6 m/s)
Visibility: 6 or more miles 10+ km)
Ceiling: at least 12,000 feet AGL
Clouds: scattered clouds at 3000 feet AGL
Weather: no significant weather forecast for this period